createdAt,value
2022-12-19T00:00:37.096Z,101150.25
2022-12-19T00:03:05.083Z,101142.41
2022-12-19T00:05:36.799Z,101143.34
2022-12-19T00:08:16.810Z,101144.19
2022-12-19T00:10:56.410Z,101140.19
2022-12-19T00:13:24.646Z,101135.78
2022-12-19T00:15:52.805Z,101128.06
2022-12-19T00:18:20.548Z,101129.63
2022-12-19T00:20:55.744Z,101119.94
2022-12-19T00:23:23.540Z,101121.63
2022-12-19T00:25:52.620Z,101118.09
2022-12-19T00:28:21.523Z,101110.16
2022-12-19T00:30:49.227Z,101111.94
2022-12-19T00:33:19.344Z,101112.84
2022-12-19T00:35:47.011Z,101104.94
2022-12-19T00:38:14.661Z,101100.25
2022-12-19T00:40:42.355Z,101099.50
2022-12-19T00:43:11.360Z,101095.97
2022-12-19T00:45:39.154Z,101093.16
2022-12-19T00:48:07.200Z,101077.50
2022-12-19T00:50:37.031Z,101084.19
2022-12-19T00:53:04.748Z,101082.97
2022-12-19T00:55:34.832Z,101075.69
2022-12-19T00:58:02.572Z,101066.88
2022-12-19T01:00:31.879Z,101065.78
2022-12-19T01:02:59.689Z,101057.09
2022-12-19T01:05:30.547Z,101053.66
2022-12-19T01:07:59.015Z,101043.84
2022-12-19T01:10:30.212Z,101057.75
2022-12-19T01:12:58.283Z,101047.19
2022-12-19T01:15:25.900Z,101047.94
2022-12-19T01:17:55.135Z,101034.78
2022-12-19T01:20:29.323Z,101041.88
2022-12-19T01:22:59.784Z,101036.53
2022-12-19T01:25:28.405Z,101044.38
2022-12-19T01:27:56.241Z,101047.94
2022-12-19T01:30:24.654Z,101045.13
2022-12-19T01:32:55.009Z,101034.56
2022-12-19T01:35:22.790Z,101034.47
2022-12-19T01:37:51.139Z,101029.84
2022-12-19T01:40:19.658Z,101014.63
2022-12-19T01:42:48.961Z,101006.47
2022-12-19T01:45:42.146Z,101005.53
2022-12-19T01:48:19.639Z,101003.94
2022-12-19T01:51:01.635Z,101001.84
2022-12-19T01:53:35.525Z,101000.00
2022-12-19T01:56:09.027Z,101005.97
2022-12-19T01:58:39.095Z,101001.56
2022-12-19T02:01:07.022Z,101001.34
2022-12-19T02:03:38.894Z,100996.97
2022-12-19T02:06:12.552Z,100982.88
2022-12-19T02:08:42.307Z,100982.97
2022-12-19T02:11:09.946Z,100974.09
2022-12-19T02:13:39.358Z,100978.56
2022-12-19T02:16:21.392Z,100985.38
2022-12-19T02:19:05.388Z,100970.53
2022-12-19T02:21:46.172Z,100956.66
2022-12-19T02:24:44.246Z,100942.75
2022-12-19T02:27:43.173Z,100925.28
2022-12-19T02:30:14.335Z,100935.66
2022-12-19T02:33:03.047Z,100923.41
2022-12-19T02:35:41.724Z,100925.06
2022-12-19T02:38:17.017Z,100921.75
2022-12-19T02:40:54.660Z,100929.69
2022-12-19T02:43:26.505Z,100934.69
2022-12-19T02:45:56.821Z,100938.97
2022-12-19T02:48:28.478Z,100940.75
2022-12-19T02:50:56.176Z,100929.06
2022-12-19T02:53:25.324Z,100922.25
2022-12-19T02:56:11.961Z,100927.06
2022-12-19T02:59:13.779Z,100925.09
2022-12-19T03:01:48.730Z,100921.41
2022-12-19T03:04:26.735Z,100926.53
2022-12-19T03:07:01.624Z,100940.09
2022-12-19T03:09:41.679Z,100926.00
2022-12-19T03:12:17.682Z,100913.25
2022-12-19T03:14:47.761Z,100899.44
2022-12-19T03:17:15.686Z,100897.16
2022-12-19T03:19:46.728Z,100887.13
2022-12-19T03:22:14.450Z,100893.91
2022-12-19T03:24:42.506Z,100890.28
2022-12-19T03:27:12.713Z,100890.03
2022-12-19T03:29:46.645Z,100893.50
2022-12-19T03:32:16.019Z,100861.94
2022-12-19T03:34:48.239Z,100874.16
2022-12-19T03:37:19.469Z,100864.44
2022-12-19T03:39:50.424Z,100868.38
2022-12-19T03:42:37.785Z,100873.28
2022-12-19T03:45:07.586Z,100860.84
2022-12-19T03:47:39.110Z,100871.31
2022-12-19T03:50:09.816Z,100864.75
2022-12-19T03:52:46.694Z,100851.31
2022-12-19T03:55:20.442Z,100837.41
2022-12-19T03:57:55.410Z,100839.00
2022-12-19T04:00:24.818Z,100826.03
2022-12-19T04:02:56.172Z,100821.19
2022-12-19T04:05:27.993Z,100814.91
2022-12-19T04:07:59.475Z,100815.63
2022-12-19T04:10:29.353Z,100803.50
2022-12-19T04:13:03.419Z,100812.78
2022-12-19T04:15:35.827Z,100798.66
2022-12-19T04:18:06.435Z,100793.31
2022-12-19T04:20:40.537Z,100797.38
2022-12-19T04:23:15.059Z,100791.41
2022-12-19T04:25:46.585Z,100795.59
2022-12-19T04:28:18.507Z,100793.47
2022-12-19T04:30:47.539Z,100795.03
2022-12-19T04:33:15.377Z,100800.75
2022-12-19T04:35:44.702Z,100800.31
2022-12-19T04:38:12.614Z,100792.59
2022-12-19T04:40:41.653Z,100783.91
2022-12-19T04:43:09.844Z,100783.91
2022-12-19T04:45:37.999Z,100784.75
2022-12-19T04:48:06.121Z,100769.84
2022-12-19T04:50:35.917Z,100771.41
2022-12-19T04:53:05.245Z,100784.75
2022-12-19T04:55:32.940Z,100775.22
2022-12-19T04:58:04.721Z,100772.63
2022-12-19T05:00:32.594Z,100775.22
2022-12-19T05:03:00.476Z,100770.59
2022-12-19T05:05:28.428Z,100758.59
2022-12-19T05:07:56.465Z,100751.34
2022-12-19T05:10:25.745Z,100746.31
2022-12-19T05:12:55.367Z,100746.00
2022-12-19T05:15:23.445Z,100748.38
2022-12-19T05:17:51.213Z,100742.06
2022-12-19T05:20:19.054Z,100737.56
2022-12-19T05:22:46.704Z,100739.09
2022-12-19T05:25:14.382Z,100731.16
2022-12-19T05:27:43.464Z,100736.88
2022-12-19T05:30:12.165Z,100734.84
2022-12-19T05:32:39.830Z,100734.97
2022-12-19T05:35:08.416Z,100736.53
2022-12-19T05:37:36.155Z,100727.84
2022-12-19T05:40:03.855Z,100724.38
2022-12-19T05:42:31.534Z,100723.34
2022-12-19T05:45:00.595Z,100714.97
2022-12-19T05:47:28.237Z,100710.00
2022-12-19T05:49:55.981Z,100727.13
2022-12-19T05:52:24.609Z,100718.56
2022-12-19T05:54:52.376Z,100719.50
2022-12-19T05:57:20.062Z,100721.78
2022-12-19T05:59:47.813Z,100718.56
2022-12-19T06:02:16.873Z,100715.34
2022-12-19T06:04:44.540Z,100714.38
2022-12-19T06:07:16.458Z,100717.72
2022-12-19T06:09:46.946Z,100719.38
2022-12-19T06:12:14.603Z,100723.56
2022-12-19T06:14:42.252Z,100722.72
2022-12-19T06:17:09.949Z,100714.88
2022-12-19T06:19:38.973Z,100726.06
2022-12-19T06:22:06.652Z,100707.63
2022-12-19T06:24:34.277Z,100713.56
2022-12-19T06:27:01.965Z,100709.78
2022-12-19T06:29:29.644Z,100711.44
2022-12-19T06:31:57.352Z,100707.25
2022-12-19T06:34:55.193Z,100711.56
2022-12-19T06:37:14.127Z,100717.25
2022-12-19T06:39:41.839Z,100715.16
2022-12-19T06:42:24.494Z,100703.94
2022-12-19T06:44:53.669Z,100717.03
2022-12-19T06:47:23.059Z,100712.53
2022-12-19T06:49:50.769Z,100701.06
2022-12-19T06:52:19.848Z,100715.38
2022-12-19T06:54:47.518Z,100703.84
2022-12-19T06:57:15.198Z,100712.53
2022-12-19T06:59:43.253Z,100706.69
2022-12-19T07:02:24.673Z,100715.72
2022-12-19T07:04:57.432Z,100719.28
2022-12-19T07:07:26.473Z,100715.13
2022-12-19T07:09:54.389Z,100714.53
2022-12-19T07:12:22.185Z,100724.28
2022-12-19T07:14:53.309Z,100716.44
2022-12-19T07:17:23.373Z,100714.03
2022-12-19T07:19:51.657Z,100715.81
2022-12-19T07:22:19.455Z,100719.38
2022-12-19T07:24:48.789Z,100718.44
2022-12-19T07:27:16.541Z,100727.13
2022-12-19T07:29:44.182Z,100721.03
2022-12-19T07:32:11.965Z,100723.56
2022-12-19T07:34:39.612Z,100727.84
2022-12-19T07:37:07.943Z,100728.69
2022-12-19T07:39:35.684Z,100719.75
2022-12-19T07:42:04.973Z,100727.25
2022-12-19T07:44:39.317Z,100721.91
2022-12-19T07:47:07.697Z,100712.28
2022-12-19T07:49:35.447Z,100719.03
2022-12-19T07:52:03.152Z,100727.25
2022-12-19T07:54:30.823Z,100731.09
2022-12-19T07:56:58.528Z,100735.13
2022-12-19T07:59:31.399Z,100734.66
2022-12-19T08:02:02.298Z,100724.66
2022-12-19T08:04:30.332Z,100737.28
2022-12-19T08:06:58.342Z,100730.97
2022-12-19T08:09:27.668Z,100727.16
2022-12-19T08:11:55.468Z,100733.81
2022-12-19T08:14:23.203Z,100727.25
2022-12-19T08:17:19.202Z,100732.16
2022-12-19T08:19:39.956Z,100726.44
2022-12-19T08:22:07.608Z,100721.66
2022-12-19T08:24:35.582Z,100714.97
2022-12-19T08:27:03.586Z,100720.81
2022-12-19T08:29:31.485Z,100711.38
2022-12-19T08:32:00.538Z,100714.34
2022-12-19T08:34:28.216Z,100712.88
2022-12-19T08:36:55.870Z,100711.81
2022-12-19T08:39:23.606Z,100723.47
2022-12-19T08:41:51.333Z,100713.31
2022-12-19T08:44:19.041Z,100717.09
2022-12-19T08:46:49.892Z,100706.09
2022-12-19T08:49:19.862Z,100699.50
2022-12-19T08:51:47.922Z,100710.22
2022-12-19T08:54:15.686Z,100700.88
2022-12-19T08:56:46.699Z,100713.34
2022-12-19T08:59:15.984Z,100707.59
2022-12-19T09:01:50.698Z,100701.72
2022-12-19T09:05:58.725Z,100702.84
2022-12-19T09:07:07.472Z,100701.38
2022-12-19T09:09:35.162Z,100710.78
2022-12-19T09:12:03.047Z,100707.53
2022-12-19T09:14:34.566Z,100708.34
2022-12-19T09:17:04.638Z,100716.66
2022-12-19T09:19:34.182Z,100706.47
2022-12-19T09:22:01.861Z,100712.03
2022-12-19T09:24:29.646Z,100703.78
2022-12-19T09:26:57.304Z,100705.88
2022-12-19T09:29:26.579Z,100698.91
2022-12-19T09:31:57.133Z,100692.81
2022-12-19T09:34:37.644Z,100700.88
2022-12-19T09:37:08.998Z,100697.56
2022-12-19T09:39:45.474Z,100703.94
2022-12-19T09:42:41.153Z,100694.31
2022-12-19T09:45:34.287Z,100695.00
2022-12-19T09:48:03.458Z,100692.97
2022-12-19T09:50:48.933Z,100686.72
2022-12-19T09:53:25.235Z,100685.06
2022-12-19T09:55:54.950Z,100691.00
2022-12-19T09:58:32.422Z,100688.69
2022-12-19T10:01:03.822Z,100695.88
2022-12-19T10:03:40.339Z,100694.47
2022-12-19T10:07:04.956Z,100696.53
2022-12-19T10:10:49.126Z,100693.47
2022-12-19T10:12:43.502Z,100682.66
2022-12-19T10:15:09.212Z,100680.44
2022-12-19T10:17:54.924Z,100683.50
2022-12-19T10:20:28.344Z,100684.84
2022-12-19T10:23:08.400Z,100685.94
2022-12-19T10:25:52.508Z,100669.44
2022-12-19T10:28:47.672Z,100681.88
2022-12-19T10:31:22.247Z,100680.59
2022-12-19T10:33:56.900Z,100681.16
2022-12-19T10:36:48.615Z,100676.28
2022-12-19T10:39:21.297Z,100683.78
2022-12-19T10:41:56.929Z,100685.50
2022-12-19T10:44:28.294Z,100676.72
2022-12-19T10:46:56.022Z,100675.88
2022-12-19T10:49:27.438Z,100680.53
2022-12-19T10:52:00.020Z,100674.84
2022-12-19T10:54:39.342Z,100680.34
2022-12-19T10:57:26.272Z,100669.34
2022-12-19T11:00:02.958Z,100662.41
2022-12-19T11:02:35.413Z,100668.66
2022-12-19T11:05:04.718Z,100672.53
2022-12-19T11:07:32.635Z,100668.66
2022-12-19T11:10:28.107Z,100671.81
2022-12-19T11:15:49.675Z,100661.66
2022-12-19T11:20:04.932Z,100662.41
2022-12-19T11:29:15.212Z,100652.38
2022-12-19T11:29:46.627Z,100650.66
2022-12-19T11:30:05.066Z,100651.75
2022-12-19T11:30:39.348Z,100652.16
2022-12-19T11:33:15.752Z,100652.47
2022-12-19T11:35:49.644Z,100641.13
2022-12-19T11:38:22.189Z,100647.28
2022-12-19T11:40:54.019Z,100644.19
2022-12-19T11:43:45.921Z,100640.25
2022-12-19T11:46:30.475Z,100627.25
2022-12-19T11:49:02.868Z,100632.38
2022-12-19T11:51:35.705Z,100628.47
2022-12-19T11:54:13.148Z,100630.09
2022-12-19T11:56:41.049Z,100620.34
2022-12-19T11:59:19.375Z,100616.06
2022-12-19T12:02:04.451Z,100623.69
2022-12-19T12:05:02.059Z,100619.53
2022-12-19T12:07:56.981Z,100612.75
2022-12-19T12:14:02.072Z,100607.00
2022-12-19T12:22:16.507Z,100603.59
2022-12-19T12:25:13.322Z,100614.81
2022-12-19T12:31:10.064Z,100616.59
2022-12-19T12:31:14.258Z,100623.44
2022-12-19T12:31:26.819Z,100621.09
2022-12-19T12:31:41.321Z,100620.63
2022-12-19T12:35:34.264Z,100640.28
2022-12-19T12:38:14.526Z,100637.44
2022-12-19T12:40:43.588Z,100642.19
2022-12-19T12:43:22.602Z,100622.16
2022-12-19T12:45:50.388Z,100633.38
2022-12-19T12:48:24.927Z,100632.84
2022-12-19T12:50:56.264Z,100633.31
2022-12-19T12:53:27.279Z,100626.34
2022-12-19T12:55:57.564Z,100620.09
2022-12-19T12:58:45.693Z,100619.81
2022-12-19T13:01:18.395Z,100624.94
2022-12-19T13:03:55.817Z,100625.38
2022-12-19T13:06:33.037Z,100629.47
2022-12-19T13:09:05.032Z,100634.25
2022-12-19T13:12:05.120Z,100638.38
2022-12-19T13:14:49.657Z,100636.91
2022-12-19T13:17:26.183Z,100623.16
2022-12-19T13:19:55.390Z,100629.56
2022-12-19T13:22:39.415Z,100619.47
2022-12-19T13:25:48.901Z,100625.22
2022-12-19T13:28:42.180Z,100612.03
2022-12-19T13:31:23.287Z,100612.69
2022-12-19T13:34:19.069Z,100610.03
2022-12-19T13:39:54.162Z,100604.75
2022-12-19T13:40:09.051Z,100601.28
2022-12-19T13:43:09.729Z,100604.25
2022-12-19T13:45:42.498Z,100602.88
2022-12-19T13:48:16.290Z,100601.75
2022-12-19T13:50:47.616Z,100602.75
2022-12-19T13:53:18.488Z,100604.69
2022-12-19T13:55:48.981Z,100619.72
2022-12-19T13:58:29.227Z,100613.91
2022-12-19T14:01:03.911Z,100610.59
2022-12-19T14:03:37.982Z,100613.22
2022-12-19T14:06:19.725Z,100611.56
2022-12-19T14:08:59.273Z,100603.81
2022-12-19T14:13:45.276Z,100593.56
2022-12-19T14:14:48.563Z,100587.59
2022-12-19T14:17:37.526Z,100583.28
2022-12-19T14:21:52.618Z,100583.75
2022-12-19T14:23:05.920Z,100584.22
2022-12-19T14:28:18.375Z,100582.88
2022-12-19T14:28:33.476Z,100572.78
2022-12-19T14:31:06.147Z,100572.94
2022-12-19T14:33:58.524Z,100570.56
2022-12-19T14:36:30.586Z,100560.34
2022-12-19T14:39:25.329Z,100563.13
2022-12-19T14:42:08.488Z,100575.78
2022-12-19T14:54:09.465Z,100563.50
2022-12-19T14:54:16.722Z,100573.56
2022-12-19T14:54:26.180Z,100575.97
2022-12-19T14:54:26.182Z,100564.59
2022-12-19T14:58:58.831Z,100562.56
2022-12-19T15:01:29.887Z,100568.00
2022-12-19T15:04:48.085Z,100563.19
2022-12-19T15:07:09.740Z,100562.78
2022-12-19T15:11:08.834Z,100563.94
2022-12-19T15:14:46.750Z,100562.72
2022-12-19T15:15:58.757Z,100549.81
2022-12-19T15:18:29.101Z,100537.91
2022-12-19T15:20:59.071Z,100542.53
2022-12-19T15:23:28.796Z,100545.59
2022-12-19T15:26:06.658Z,100551.16
2022-12-19T15:28:41.409Z,100545.81
2022-12-19T15:31:26.685Z,100538.63
2022-12-19T15:36:42.487Z,100540.94
2022-12-19T15:39:11.509Z,100542.78
2022-12-19T15:41:39.187Z,100551.97
2022-12-19T15:44:11.180Z,100548.13
2022-12-19T15:46:46.344Z,100546.72
2022-12-19T15:49:17.347Z,100533.19
2022-12-19T15:51:45.388Z,100533.44
2022-12-19T15:54:47.230Z,100528.06
2022-12-19T15:57:02.717Z,100530.31
2022-12-19T15:59:37.562Z,100540.28
2022-12-19T16:02:17.321Z,100531.03
2022-12-19T16:04:46.471Z,100536.56
2022-12-19T16:07:17.018Z,100530.34
2022-12-19T16:09:46.159Z,100543.38
2022-12-19T16:12:16.784Z,100540.28
2022-12-19T16:14:45.156Z,100524.22
2022-12-19T16:17:22.187Z,100519.34
2022-12-19T16:19:51.042Z,100522.22
2022-12-19T16:22:21.093Z,100529.56
2022-12-19T16:24:51.012Z,100524.69
2022-12-19T16:27:23.401Z,100502.50
2022-12-19T16:29:51.542Z,100500.25
2022-12-19T16:32:20.029Z,100491.25
2022-12-19T16:34:47.684Z,100489.81
2022-12-19T16:37:15.353Z,100480.63
2022-12-19T16:39:43.176Z,100478.56
2022-12-19T16:42:17.078Z,100469.22
2022-12-19T16:44:47.341Z,100474.03
2022-12-19T16:47:17.078Z,100468.34
2022-12-19T16:49:45.512Z,100479.09
2022-12-19T16:52:13.475Z,100482.94
2022-12-19T16:54:41.153Z,100482.66
2022-12-19T16:57:19.754Z,100484.00
2022-12-19T16:59:47.767Z,100485.50
2022-12-19T17:02:39.124Z,100478.28
2022-12-19T17:05:07.937Z,100477.69
2022-12-19T17:07:36.219Z,100486.78
2022-12-19T17:10:03.993Z,100492.44
2022-12-19T17:12:33.275Z,100500.03
2022-12-19T17:15:01.097Z,100515.72
2022-12-19T17:17:29.330Z,100512.63
2022-12-19T17:19:56.997Z,100511.66
2022-12-19T17:22:24.645Z,100529.50
2022-12-19T17:24:52.370Z,100524.06
2022-12-19T17:27:22.723Z,100542.53
2022-12-19T17:29:51.765Z,100552.78
2022-12-19T17:32:24.316Z,100545.16
2022-12-19T17:34:53.696Z,100559.03
2022-12-19T17:37:21.841Z,100561.50
2022-12-19T17:39:49.539Z,100549.97
2022-12-19T17:42:22.526Z,100549.16
2022-12-19T17:44:52.054Z,100552.63
2022-12-19T17:47:21.092Z,100546.22
2022-12-19T17:49:49.716Z,100538.03
2022-12-19T17:52:20.055Z,100531.72
2022-12-19T17:54:48.103Z,100524.00
2022-12-19T17:57:17.164Z,100523.47
2022-12-19T17:59:46.378Z,100517.69
2022-12-19T18:02:27.237Z,100522.56
2022-12-19T18:04:55.110Z,100521.22
2022-12-19T18:07:22.786Z,100525.94
2022-12-19T18:09:50.643Z,100550.66
2022-12-19T18:12:18.295Z,100534.03
2022-12-19T18:14:46.157Z,100532.19
2022-12-19T18:17:16.837Z,100520.84
2022-12-19T18:19:45.903Z,100533.84
2022-12-19T18:22:14.175Z,100544.59
2022-12-19T18:24:42.004Z,100535.00
2022-12-19T18:27:09.828Z,100534.31
2022-12-19T18:29:37.591Z,100538.91
2022-12-19T18:32:05.416Z,100539.22
2022-12-19T18:34:35.487Z,100527.16
2022-12-19T18:37:05.428Z,100534.25
2022-12-19T18:39:34.089Z,100529.25
2022-12-19T18:42:02.058Z,100531.75
2022-12-19T18:44:29.767Z,100541.19
2022-12-19T18:46:57.507Z,100545.34
2022-12-19T18:49:25.455Z,100545.00
2022-12-19T18:51:53.120Z,100550.97
2022-12-19T18:54:23.380Z,100546.22
2022-12-19T18:56:51.797Z,100542.47
2022-12-19T18:59:19.995Z,100541.34
2022-12-19T19:01:48.211Z,100535.91
2022-12-19T19:04:17.895Z,100536.56
2022-12-19T19:06:51.624Z,100545.16
2022-12-19T19:09:22.734Z,100538.22
2022-12-19T19:12:09.009Z,100544.88
2022-12-19T19:14:36.701Z,100543.72
2022-12-19T19:17:06.012Z,100544.41
2022-12-19T19:19:33.787Z,100545.94
2022-12-19T19:22:01.479Z,100537.00
2022-12-19T19:24:30.573Z,100539.53
2022-12-19T19:26:58.281Z,100535.09
2022-12-19T19:29:25.970Z,100538.41
2022-12-19T19:31:53.761Z,100529.00
2022-12-19T19:34:26.765Z,100528.84
2022-12-19T19:36:58.033Z,100531.72
2022-12-19T19:39:27.603Z,100530.09
2022-12-19T19:41:57.073Z,100536.78
2022-12-19T19:44:24.840Z,100531.31
2022-12-19T19:46:52.555Z,100535.00
2022-12-19T19:49:21.355Z,100540.34
2022-12-19T19:51:49.076Z,100534.16
2022-12-19T19:54:16.855Z,100536.84
2022-12-19T19:56:44.568Z,100531.19
2022-12-19T19:59:13.762Z,100537.44
2022-12-19T20:01:41.583Z,100543.03
2022-12-19T20:04:09.637Z,100547.16
2022-12-19T20:06:37.369Z,100544.25
2022-12-19T20:09:05.280Z,100539.47
2022-12-19T20:11:32.993Z,100540.84
2022-12-19T20:14:00.675Z,100556.06
2022-12-19T20:16:29.752Z,100550.19
2022-12-19T20:18:57.463Z,100548.75
2022-12-19T20:21:25.136Z,100550.00
2022-12-19T20:23:52.851Z,100548.69
2022-12-19T20:26:20.572Z,100551.75
2022-12-19T20:28:50.045Z,100553.38
2022-12-19T20:31:19.141Z,100567.09
2022-12-19T20:33:49.199Z,100562.50
2022-12-19T20:36:17.456Z,100569.28
2022-12-19T20:38:48.157Z,100564.13
2022-12-19T20:41:16.212Z,100563.03
2022-12-19T20:43:44.040Z,100562.88
2022-12-19T20:46:13.996Z,100565.22
2022-12-19T20:48:42.187Z,100560.34
2022-12-19T20:51:11.801Z,100553.41
2022-12-19T20:53:41.471Z,100568.56
2022-12-19T20:56:10.365Z,100568.16
2022-12-19T20:58:39.085Z,100568.00
2022-12-19T21:01:09.362Z,100572.16
2022-12-19T21:03:38.024Z,100569.53
2022-12-19T21:06:07.137Z,100581.19
2022-12-19T21:08:36.995Z,100586.75
2022-12-19T21:11:06.340Z,100592.19
2022-12-19T21:13:35.171Z,100585.09
2022-12-19T21:16:06.859Z,100582.47
2022-12-19T21:18:35.246Z,100591.75
2022-12-19T21:21:04.357Z,100571.72
2022-12-19T21:23:32.053Z,100571.94
2022-12-19T21:26:02.796Z,100570.81
2022-12-19T21:28:30.826Z,100564.41
2022-12-19T21:31:00.244Z,100568.69
2022-12-19T21:33:28.462Z,100559.25
2022-12-19T21:35:56.600Z,100565.38
2022-12-19T21:38:24.791Z,100563.72
2022-12-19T21:40:52.517Z,100569.00
2022-12-19T21:43:21.640Z,100560.28
2022-12-19T21:45:49.756Z,100565.69
2022-12-19T21:48:17.437Z,100557.25
2022-12-19T21:50:45.207Z,100567.78
2022-12-19T21:53:12.974Z,100560.84
2022-12-19T21:55:40.937Z,100568.25
2022-12-19T21:58:08.645Z,100553.56
2022-12-19T22:00:37.846Z,100553.56
2022-12-19T22:03:15.131Z,100558.97
2022-12-19T22:05:43.457Z,100553.16
2022-12-19T22:08:11.984Z,100547.19
2022-12-19T22:10:39.973Z,100533.03
2022-12-19T22:13:07.840Z,100537.63
2022-12-19T22:15:37.560Z,100527.41
2022-12-19T22:18:05.381Z,100528.66
2022-12-19T22:20:33.162Z,100534.09
2022-12-19T22:23:00.824Z,100536.28
2022-12-19T22:25:28.529Z,100532.66
2022-12-19T22:27:56.430Z,100521.28
2022-12-19T22:30:24.200Z,100534.34
2022-12-19T22:32:53.231Z,100529.84
2022-12-19T22:35:20.934Z,100532.88
2022-12-19T22:37:48.729Z,100531.47
2022-12-19T22:40:16.751Z,100531.19
2022-12-19T22:42:44.441Z,100530.03
2022-12-19T22:45:12.461Z,100524.59
2022-12-19T22:47:42.428Z,100528.06
2022-12-19T22:50:11.830Z,100532.88
2022-12-19T22:52:39.704Z,100522.72
2022-12-19T22:55:08.294Z,100521.28
2022-12-19T22:57:35.993Z,100518.16
2022-12-19T23:00:06.061Z,100523.00
2022-12-19T23:02:33.930Z,100520.84
2022-12-19T23:05:01.708Z,100522.50
2022-12-19T23:07:30.807Z,100519.03
2022-12-19T23:09:58.470Z,100520.03
2022-12-19T23:12:26.518Z,100519.19
2022-12-19T23:14:54.414Z,100523.81
2022-12-19T23:17:22.322Z,100518.34
2022-12-19T23:19:50.089Z,100515.44
2022-12-19T23:22:17.802Z,100510.81
2022-12-19T23:24:48.661Z,100516.31
2022-12-19T23:27:16.347Z,100517.63
2022-12-19T23:29:44.131Z,100521.31
2022-12-19T23:32:12.163Z,100515.59
2022-12-19T23:34:39.802Z,100527.16
2022-12-19T23:37:11.917Z,100519.59
2022-12-19T23:39:40.208Z,100515.50
2022-12-19T23:42:09.315Z,100509.06
2022-12-19T23:44:37.190Z,100515.34
2022-12-19T23:47:04.942Z,100520.97
2022-12-19T23:49:33.475Z,100513.47
2022-12-19T23:52:01.314Z,100503.56
2022-12-19T23:54:29.064Z,100505.84
2022-12-19T23:56:56.721Z,100493.44
2022-12-19T23:59:25.884Z,100483.66
